Sawtelle Peak

Sawtelle summit stationLocated on Sawtelle Peak in the Centennials. Use the Sawtelle SNOdar or the nearest SNOTEL station for snow depth data: White Elephant. The data on this page is also available to view at dataGarrison.com.

 

Elevation
9885ft
Jump to table bottom
Date Time Temperature
deg F
RH, % Wind Speed Wind Gust Wind Direction Pressure Light
12/10/22 03:00 4.9 90 20 34 W - 267 697.880 1
12/10/22 02:00 4.7 90 27 40 W - 268 698.180 1
12/10/22 01:00 4.1 89 40 52 W - 263 697.960 1
12/10/22 00:00 4.1 89 47 58 W - 260 696.700 1
12/09/22 23:00 3.8 89 36 49 W - 268 696.840 1
12/09/22 22:00 3.7 89 24 37 W - 258 698.120 1
12/09/22 21:00 4.9 90 16 25 W - 268 698.140 1
12/09/22 20:00 5.3 90 20 28 W - 268 698.060 0
12/09/22 19:00 5.8 90 23 31 W - 267 697.480 0
12/09/22 18:00 5.9 90 16 22 W - 278 697.840 0
12/09/22 17:00 6.8 90 10 20 NW - 306 697.780 405
12/09/22 16:00 7.3 90 13 19 NW - 303 697.020 73,996
12/09/22 15:00 7.9 90 19 29 W - 284 696.020 122,811
12/09/22 14:00 9.2 91 23 34 W - 282 695.400 262,138
12/09/22 13:00 9.3 91 27 39 W - 274 694.760 192,983
12/09/22 12:00 9.6 91 30 41 NW - 314 694.720 418,754
12/09/22 11:00 9.6 91 30 38 NW - 331 695.320 331,293
12/09/22 10:00 8.2 90 32 45 NW - 326 695.560 108,574
12/09/22 09:00 8.5 91 31 43 NW - 323 695.240 65,860
12/09/22 08:00 7.9 91 27 40 NW - 320 694.740 11,706
12/09/22 07:00 8.1 91 21 38 NW - 313 695.360 2
12/09/22 06:00 7.8 91 19 31 NW - 320 696.300 1
12/09/22 05:00 7.7 91 18 32 NW - 323 696.980 1
12/09/22 04:00 7.8 91 20 35 NW - 314 697.020 1
12/09/22 03:00 8.2 91 20 35 NW - 316 697.960 1
12/09/22 02:00 7.4 91 26 40 NW - 323 698.180 2
12/09/22 01:00 6.4 90 24 39 NW - 321 698.040 2
12/09/22 00:00 5.5 90 21 38 NW - 326 699.400 3
12/08/22 23:00 5.1 90 17 29 NW - 326 700.600 2
12/08/22 22:00 4.7 90 14 28 NW - 323 700.880 1
12/08/22 21:00 5.0 90 17 27 NW - 319 701.240 1
12/08/22 20:00 5.3 90 20 33 NW - 327 701.700 1
12/08/22 19:00 5.7 90 27 39 NW - 326 701.980 0
12/08/22 18:00 6.0 90 24 34 NW - 321 702.340 0
12/08/22 17:00 5.9 90 24 41 NW - 324 702.480 435
12/08/22 16:00 6.3 90 26 37 NW - 324 702.380 38,401
12/08/22 15:00 7.0 90 22 37 NW - 324 702.100 123,828
12/08/22 14:00 8.2 90 18 31 NW - 326 703.020 310,954
12/08/22 13:00 7.7 90 20 31 NW - 323 702.980 270,274
12/08/22 12:00 6.9 90 23 36 NW - 321 702.860 339,429
12/08/22 11:00 4.7 89 34 42 NW - 313 703.000 258,070
12/08/22 10:00 5.6 88 30 38 NW - 299 702.400 410,618
12/08/22 09:00 4.4 88 21 30 W - 288 702.060 414,686
12/08/22 08:00 4.5 90 17 23 W - 289 702.560 79,589
12/08/22 07:00 4.3 89 17 22 W - 289 702.540 14
12/08/22 06:00 4.8 91 15 21 NW - 296 702.200 0
12/08/22 05:00 6.2 90 15 24 NW - 303 701.900 1
12/08/22 04:00 6.2 89 12 23 NW - 324 701.760 1
12/08/22 03:00 8.3 90 14 27 N - 352 702.140 3
12/08/22 02:00 7.5 90 14 27 N - 338 701.600 4